createdAt,value
2018-10-15T00:02:07.640Z,84.82
2018-10-15T00:04:35.075Z,85.12
2018-10-15T00:07:02.418Z,86.27
2018-10-15T00:09:30.397Z,86.53
2018-10-15T00:11:57.859Z,85.63
2018-10-15T00:14:25.722Z,85.80
2018-10-15T00:16:53.085Z,86.11
2018-10-15T00:19:20.486Z,86.06
2018-10-15T00:21:47.858Z,86.01
2018-10-15T00:24:15.230Z,86.11
2018-10-15T00:26:42.995Z,85.48
2018-10-15T00:29:10.434Z,85.05
2018-10-15T00:31:37.912Z,84.98
2018-10-15T00:34:05.324Z,84.46
2018-10-15T00:36:32.779Z,85.25
2018-10-15T00:39:00.193Z,85.63
2018-10-15T00:41:27.553Z,84.56
2018-10-15T00:43:55.003Z,84.44
2018-10-15T00:46:22.445Z,84.14
2018-10-15T00:48:49.973Z,84.19
2018-10-15T00:51:17.393Z,83.27
2018-10-15T00:53:44.848Z,83.47
2018-10-15T00:56:12.355Z,82.94
2018-10-15T00:58:39.858Z,83.95
2018-10-15T01:01:07.290Z,84.51
2018-10-15T01:03:34.673Z,85.17
2018-10-15T01:06:02.138Z,85.37
2018-10-15T01:08:29.526Z,84.94
2018-10-15T01:10:56.933Z,85.38
2018-10-15T01:13:24.317Z,85.38
2018-10-15T01:15:51.937Z,85.46
2018-10-15T01:18:19.351Z,86.10
2018-10-15T01:20:46.769Z,86.25
2018-10-15T01:23:14.206Z,87.03
2018-10-15T01:25:41.669Z,86.62
2018-10-15T01:28:09.097Z,88.62
2018-10-15T01:30:36.469Z,88.77
2018-10-15T01:33:04.163Z,87.57
2018-10-15T01:35:31.590Z,86.56
2018-10-15T01:37:58.957Z,86.94
2018-10-15T01:40:26.419Z,86.62
2018-10-15T01:42:53.851Z,85.55
2018-10-15T01:45:21.239Z,86.66
2018-10-15T01:47:48.659Z,86.17
2018-10-15T01:50:16.128Z,86.38
2018-10-15T01:52:43.579Z,86.29
2018-10-15T01:55:10.990Z,85.15
2018-10-15T01:57:38.658Z,85.08
2018-10-15T02:00:07.222Z,85.16
2018-10-15T02:02:34.598Z,86.60
2018-10-15T02:05:02.232Z,86.27
2018-10-15T02:07:29.865Z,85.74
2018-10-15T02:09:57.304Z,86.27
2018-10-15T02:12:24.738Z,86.26
2018-10-15T02:14:52.162Z,85.62
2018-10-15T02:17:19.551Z,85.58
2018-10-15T02:32:46.559Z,85.65
2018-10-15T02:35:14.268Z,84.46
2018-10-15T02:37:41.760Z,83.25
2018-10-15T02:40:09.293Z,83.19
2018-10-15T02:42:37.045Z,83.41
2018-10-15T02:45:05.747Z,83.19
2018-10-15T02:47:33.196Z,83.59
2018-10-15T02:50:00.678Z,83.67
2018-10-15T02:52:28.094Z,82.84
2018-10-15T02:54:55.448Z,82.78
2018-10-15T02:57:22.837Z,84.29
2018-10-15T02:59:50.196Z,84.49
2018-10-15T03:02:17.631Z,84.08
2018-10-15T03:04:45.017Z,85.08
2018-10-15T03:07:12.435Z,85.44
2018-10-15T03:09:39.853Z,84.79
2018-10-15T03:12:07.229Z,84.62
2018-10-15T03:14:34.663Z,85.17
2018-10-15T03:17:02.130Z,86.01
2018-10-15T03:19:29.606Z,86.25
2018-10-15T03:21:56.991Z,85.75
2018-10-15T03:24:24.499Z,84.79
2018-10-15T03:26:52.020Z,86.27
2018-10-15T03:29:19.413Z,88.81
2018-10-15T03:31:46.909Z,88.90
2018-10-15T03:34:14.311Z,87.52
2018-10-15T03:36:41.685Z,86.95
2018-10-15T03:39:09.890Z,87.38
2018-10-15T03:41:37.228Z,86.26
2018-10-15T03:44:05.353Z,86.31
2018-10-15T03:46:32.856Z,85.62
2018-10-15T03:49:00.262Z,85.54
2018-10-15T03:51:27.772Z,84.59
2018-10-15T03:53:55.341Z,83.80
2018-10-15T03:56:22.786Z,84.68
2018-10-15T03:58:50.141Z,85.16
2018-10-15T04:01:17.696Z,85.60
2018-10-15T04:03:45.248Z,85.52
2018-10-15T04:06:12.639Z,86.01
2018-10-15T04:08:40.154Z,86.42
2018-10-15T04:11:07.883Z,86.68
2018-10-15T04:13:35.329Z,85.95
2018-10-15T04:16:02.789Z,86.00
2018-10-15T04:18:30.208Z,86.05
2018-10-15T04:20:57.659Z,87.59
2018-10-15T04:23:25.135Z,88.03
2018-10-15T04:25:52.477Z,87.19
2018-10-15T04:28:19.828Z,86.61
2018-10-15T04:30:47.258Z,85.46
2018-10-15T04:33:14.634Z,85.45
2018-10-15T04:35:41.948Z,85.94
2018-10-15T04:38:09.361Z,85.72
2018-10-15T04:40:36.802Z,85.89
2018-10-15T04:56:03.727Z,85.92
2018-10-15T04:58:31.093Z,85.39
2018-10-15T05:00:58.723Z,85.02
2018-10-15T05:03:26.147Z,85.25
2018-10-15T05:05:53.485Z,85.66
2018-10-15T05:08:20.847Z,85.50
2018-10-15T05:10:48.177Z,85.76
2018-10-15T05:13:15.516Z,87.42
2018-10-15T05:15:42.924Z,87.21
2018-10-15T05:18:10.384Z,87.27
2018-10-15T05:20:37.701Z,86.68
2018-10-15T05:23:05.249Z,86.39
2018-10-15T05:25:32.599Z,86.83
2018-10-15T05:28:00.003Z,87.85
2018-10-15T05:30:27.582Z,88.05
2018-10-15T05:32:54.873Z,88.31
2018-10-15T05:35:22.257Z,87.84
2018-10-15T05:37:49.671Z,86.76
2018-10-15T05:40:17.131Z,87.19
2018-10-15T05:42:44.459Z,87.25
2018-10-15T05:45:12.589Z,86.89
2018-10-15T05:47:40.317Z,87.10
2018-10-15T05:50:09.413Z,87.09
2018-10-15T05:52:36.875Z,86.17
2018-10-15T05:55:05.185Z,86.17
2018-10-15T05:57:32.573Z,84.86
2018-10-15T05:59:59.929Z,84.99
2018-10-15T06:02:27.321Z,84.71
2018-10-15T06:04:54.733Z,85.11
2018-10-15T06:07:22.085Z,85.83
2018-10-15T06:09:49.516Z,85.88
2018-10-15T06:12:16.991Z,85.32
2018-10-15T06:14:44.348Z,84.70
2018-10-15T06:17:11.717Z,85.92
2018-10-15T06:19:39.128Z,86.14
2018-10-15T06:22:06.532Z,86.10
2018-10-15T06:24:33.881Z,86.11
2018-10-15T06:27:01.321Z,85.84
2018-10-15T06:29:28.722Z,84.98
2018-10-15T06:31:56.071Z,84.88
2018-10-15T06:34:23.456Z,84.50
2018-10-15T06:36:50.789Z,84.61
2018-10-15T06:39:18.147Z,85.47
2018-10-15T06:41:45.512Z,86.06
2018-10-15T06:44:12.843Z,85.52
2018-10-15T06:46:40.157Z,84.97
2018-10-15T06:49:07.590Z,84.69
2018-10-15T06:51:34.950Z,86.33
2018-10-15T06:54:02.370Z,86.94
2018-10-15T06:56:29.851Z,86.63
2018-10-15T06:58:57.262Z,86.91
2018-10-15T07:01:24.678Z,86.88
2018-10-15T07:03:52.107Z,86.52
2018-10-15T07:06:19.581Z,85.38
2018-10-15T07:08:46.993Z,85.29
2018-10-15T07:11:14.428Z,85.47
2018-10-15T07:13:41.900Z,85.73
2018-10-15T07:16:09.380Z,85.60
2018-10-15T07:18:36.767Z,85.54
2018-10-15T07:21:04.247Z,85.58
2018-10-15T07:23:31.609Z,85.38
2018-10-15T07:25:58.985Z,85.94
2018-10-15T07:28:26.517Z,85.58
2018-10-15T07:30:53.903Z,85.84
2018-10-15T07:33:21.246Z,83.28
2018-10-15T07:35:48.683Z,81.17
2018-10-15T07:38:16.090Z,80.96
2018-10-15T07:40:43.465Z,78.99
2018-10-15T07:43:10.863Z,77.08
2018-10-15T07:45:38.233Z,76.76
2018-10-15T07:48:05.750Z,75.70
2018-10-15T07:50:33.054Z,74.06
2018-10-15T07:53:00.546Z,74.18
2018-10-15T07:55:27.972Z,72.17
2018-10-15T07:57:55.264Z,72.28
2018-10-15T08:00:23.983Z,71.69
2018-10-15T08:02:51.605Z,71.08
2018-10-15T08:05:19.150Z,69.66
2018-10-15T08:07:46.965Z,70.64
2018-10-15T08:10:14.393Z,70.23
2018-10-15T08:12:42.085Z,69.76
2018-10-15T08:15:10.856Z,69.67
2018-10-15T08:17:38.261Z,69.37
2018-10-15T08:20:07.637Z,68.68
2018-10-15T08:22:34.935Z,67.94
2018-10-15T08:25:02.411Z,67.80
2018-10-15T08:27:29.750Z,66.90
2018-10-15T08:29:57.380Z,66.68
2018-10-15T08:32:24.789Z,65.86
2018-10-15T08:34:52.334Z,66.11
2018-10-15T08:37:19.573Z,64.86
2018-10-15T08:39:46.965Z,64.40
2018-10-15T08:42:14.463Z,63.87
2018-10-15T08:44:41.771Z,63.27
2018-10-15T08:47:09.184Z,65.68
2018-10-15T08:49:36.562Z,63.67
2018-10-15T08:52:04.034Z,63.14
2018-10-15T08:54:31.434Z,64.63
2018-10-15T08:56:58.884Z,63.47
2018-10-15T08:59:26.365Z,62.61
2018-10-15T09:01:53.760Z,62.06
2018-10-15T09:04:22.175Z,61.99
2018-10-15T09:06:49.709Z,61.41
2018-10-15T09:09:17.236Z,60.81
2018-10-15T09:11:44.342Z,59.68
2018-10-15T09:14:11.870Z,59.37
2018-10-15T09:16:39.218Z,58.71
2018-10-15T09:19:06.610Z,58.25
2018-10-15T09:21:34.288Z,58.24
2018-10-15T09:24:01.671Z,58.45
2018-10-15T09:26:29.638Z,57.35
2018-10-15T09:28:57.388Z,56.87
2018-10-15T09:31:24.801Z,56.02
2018-10-15T09:33:52.145Z,56.18
2018-10-15T09:36:19.757Z,56.01
2018-10-15T09:38:47.247Z,55.37
2018-10-15T09:41:14.598Z,53.97
2018-10-15T09:43:41.974Z,54.96
2018-10-15T09:46:09.269Z,55.30
2018-10-15T09:48:36.742Z,53.84
2018-10-15T09:51:04.284Z,53.62
2018-10-15T09:53:31.866Z,51.95
2018-10-15T09:55:59.319Z,53.06
2018-10-15T09:58:26.698Z,51.75
2018-10-15T10:00:59.740Z,52.42
2018-10-15T10:03:27.286Z,52.61
2018-10-15T10:05:54.719Z,52.42
2018-10-15T10:08:22.265Z,51.06
2018-10-15T10:10:49.668Z,51.40
2018-10-15T10:13:17.047Z,50.70
2018-10-15T10:15:44.466Z,50.30
2018-10-15T10:18:11.988Z,51.17
2018-10-15T10:20:39.310Z,50.23
2018-10-15T10:23:06.794Z,50.18
2018-10-15T10:25:34.198Z,49.62
2018-10-15T10:28:01.651Z,50.00
2018-10-15T10:30:29.072Z,49.70
2018-10-15T10:32:56.569Z,50.20
2018-10-15T10:35:48.347Z,49.97
2018-10-15T10:38:23.329Z,48.92
2018-10-15T10:40:50.888Z,48.41
2018-10-15T10:43:18.183Z,47.55
2018-10-15T10:45:45.797Z,47.72
2018-10-15T10:48:13.180Z,47.32
2018-10-15T10:50:40.602Z,47.25
2018-10-15T10:53:08.455Z,47.08
2018-10-15T10:55:35.854Z,46.71
2018-10-15T10:58:03.305Z,46.71
2018-10-15T11:00:30.645Z,46.53
2018-10-15T11:02:58.074Z,45.71
2018-10-15T11:05:25.714Z,45.14
2018-10-15T11:07:53.110Z,45.18
2018-10-15T11:10:20.522Z,45.30
2018-10-15T11:12:48.046Z,43.92
2018-10-15T11:15:15.451Z,43.90
2018-10-15T11:17:42.916Z,43.74
2018-10-15T11:20:10.389Z,44.91
2018-10-15T11:22:37.881Z,43.59
2018-10-15T11:25:05.474Z,43.63
2018-10-15T11:27:32.856Z,43.02
2018-10-15T11:30:00.496Z,43.18
2018-10-15T11:32:27.838Z,41.71
2018-10-15T11:34:55.336Z,41.42
2018-10-15T11:37:22.892Z,41.27
2018-10-15T11:39:50.307Z,40.42
2018-10-15T11:42:17.822Z,39.38
2018-10-15T11:44:45.214Z,38.57
2018-10-15T11:47:12.930Z,38.63
2018-10-15T11:49:40.354Z,37.99
2018-10-15T11:52:07.837Z,36.58
2018-10-15T11:54:35.249Z,36.73
2018-10-15T11:57:02.676Z,36.39
2018-10-15T11:59:30.031Z,34.98
2018-10-15T12:01:57.462Z,35.65
2018-10-15T12:04:24.980Z,34.57
2018-10-15T12:06:52.378Z,34.96
2018-10-15T12:09:19.845Z,34.96
2018-10-15T12:11:47.252Z,34.65
2018-10-15T12:14:14.657Z,33.76
2018-10-15T12:16:42.083Z,33.40
2018-10-15T12:19:09.566Z,32.85
2018-10-15T12:21:36.964Z,32.69
2018-10-15T12:24:04.404Z,32.59
2018-10-15T12:26:31.774Z,31.92
2018-10-15T12:28:59.219Z,33.26
2018-10-15T12:31:26.703Z,32.62
2018-10-15T12:33:54.086Z,31.98
2018-10-15T12:36:21.535Z,31.44
2018-10-15T12:38:48.984Z,31.49
2018-10-15T12:41:16.530Z,31.32
2018-10-15T12:43:44.017Z,31.81
2018-10-15T12:46:11.456Z,32.21
2018-10-15T12:48:38.900Z,31.71
2018-10-15T12:51:06.383Z,33.03
2018-10-15T12:53:33.848Z,32.54
2018-10-15T12:56:01.198Z,33.36
2018-10-15T12:58:28.614Z,33.30
2018-10-15T13:00:56.002Z,33.45
2018-10-15T13:03:23.454Z,32.75
2018-10-15T13:05:50.837Z,33.02
2018-10-15T13:08:18.275Z,32.90
2018-10-15T13:10:45.672Z,33.42
2018-10-15T13:13:13.045Z,32.97
2018-10-15T13:15:40.415Z,32.47
2018-10-15T13:18:07.824Z,33.50
2018-10-15T13:20:35.360Z,32.89
2018-10-15T13:23:02.766Z,33.44
2018-10-15T13:25:30.286Z,32.89
2018-10-15T13:27:57.759Z,33.50
2018-10-15T13:30:25.310Z,33.88
2018-10-15T13:32:52.733Z,32.61
2018-10-15T13:35:20.218Z,33.63
2018-10-15T13:37:47.617Z,33.79
2018-10-15T13:40:15.062Z,32.96
2018-10-15T13:42:42.559Z,33.98
2018-10-15T13:45:11.293Z,33.86
2018-10-15T13:47:38.758Z,33.84
2018-10-15T13:50:07.333Z,33.87
2018-10-15T13:52:34.896Z,33.93
2018-10-15T13:55:02.654Z,34.47
2018-10-15T13:57:30.028Z,34.80
2018-10-15T13:59:57.523Z,34.18
2018-10-15T14:02:24.889Z,32.37
2018-10-15T14:04:52.345Z,33.67
2018-10-15T14:07:19.735Z,34.48
2018-10-15T14:09:47.139Z,34.86
2018-10-15T14:12:14.507Z,33.76
2018-10-15T14:14:41.861Z,34.34
2018-10-15T14:17:09.480Z,34.87
2018-10-15T14:19:36.790Z,33.99
2018-10-15T14:22:04.431Z,36.39
2018-10-15T14:24:31.782Z,36.50
2018-10-15T14:26:59.160Z,36.72
2018-10-15T14:29:26.637Z,37.52
2018-10-15T14:31:54.060Z,37.98
2018-10-15T14:34:21.422Z,36.80
2018-10-15T14:36:48.942Z,38.69
2018-10-15T14:39:16.330Z,38.20
2018-10-15T14:41:43.719Z,38.38
2018-10-15T14:44:11.143Z,37.72
2018-10-15T14:46:38.506Z,39.19
2018-10-15T14:49:05.890Z,39.16
2018-10-15T14:51:33.265Z,38.47
2018-10-15T14:54:00.595Z,38.75
2018-10-15T14:56:28.115Z,38.74
2018-10-15T14:58:55.452Z,38.03
2018-10-15T15:01:22.891Z,39.13
2018-10-15T15:03:50.654Z,39.34
2018-10-15T15:06:18.034Z,38.43
2018-10-15T15:08:45.386Z,40.80
2018-10-15T15:11:24.066Z,40.63
2018-10-15T15:14:07.544Z,42.94
2018-10-15T15:16:35.018Z,43.21
2018-10-15T15:19:02.366Z,44.98
2018-10-15T15:21:29.802Z,45.08
2018-10-15T15:23:57.165Z,45.00
2018-10-15T15:26:24.512Z,45.70
2018-10-15T15:28:51.870Z,45.20
2018-10-15T15:31:19.343Z,46.36
2018-10-15T15:33:46.707Z,46.42
2018-10-15T15:36:14.070Z,46.44
2018-10-15T15:38:41.452Z,47.46
2018-10-15T15:41:08.789Z,46.57
2018-10-15T15:43:36.231Z,47.65
2018-10-15T15:46:03.698Z,47.78
2018-10-15T15:48:31.054Z,47.89
2018-10-15T15:50:58.381Z,48.65
2018-10-15T15:53:26.103Z,48.91
2018-10-15T15:55:54.656Z,48.19
2018-10-15T15:58:22.553Z,49.23
2018-10-15T16:00:50.270Z,49.10
2018-10-15T16:03:17.715Z,48.08
2018-10-15T16:05:48.748Z,48.80
2018-10-15T16:08:17.007Z,48.70
2018-10-15T16:10:44.608Z,48.62
2018-10-15T16:13:12.027Z,48.75
2018-10-15T16:15:39.387Z,48.63
2018-10-15T16:18:06.735Z,49.08
2018-10-15T16:20:34.288Z,49.33
2018-10-15T16:23:01.763Z,49.54
2018-10-15T16:25:29.229Z,49.42
2018-10-15T16:27:56.739Z,49.62
2018-10-15T16:30:24.165Z,50.52
2018-10-15T16:32:51.591Z,49.51
2018-10-15T16:35:18.997Z,50.69
2018-10-15T16:37:46.445Z,50.85
2018-10-15T16:40:13.939Z,51.81
2018-10-15T16:42:41.828Z,51.83
2018-10-15T16:45:11.084Z,52.15
2018-10-15T16:47:38.973Z,52.42
2018-10-15T16:50:08.704Z,53.09
2018-10-15T16:52:36.773Z,53.01
2018-10-15T16:55:05.291Z,53.56
2018-10-15T16:57:32.945Z,53.51
2018-10-15T17:00:00.409Z,52.76
2018-10-15T17:02:27.825Z,53.14
2018-10-15T17:04:55.408Z,53.18
2018-10-15T17:07:22.832Z,52.45
2018-10-15T17:09:50.265Z,52.73
2018-10-15T17:12:22.914Z,52.67
2018-10-15T17:14:50.326Z,52.29
2018-10-15T17:17:17.781Z,52.30
2018-10-15T17:19:45.199Z,53.03
2018-10-15T17:22:12.584Z,53.19
2018-10-15T17:24:40.046Z,53.49
2018-10-15T17:27:07.471Z,53.73
2018-10-15T17:29:35.053Z,54.50
2018-10-15T17:32:02.446Z,55.08
2018-10-15T17:34:29.849Z,55.00
2018-10-15T17:36:57.544Z,55.34
2018-10-15T17:39:25.038Z,55.19
2018-10-15T17:41:52.938Z,55.80
2018-10-15T17:44:20.431Z,55.62
2018-10-15T17:46:47.928Z,55.64
2018-10-15T17:49:15.435Z,56.48
2018-10-15T17:51:43.042Z,56.71
2018-10-15T17:54:10.556Z,57.74
2018-10-15T17:56:38.035Z,57.79
2018-10-15T17:59:05.506Z,58.34
2018-10-15T18:01:33.001Z,58.64
2018-10-15T18:04:02.192Z,58.43
2018-10-15T18:06:29.678Z,58.71
2018-10-15T18:08:57.179Z,58.85
2018-10-15T18:11:25.695Z,58.69
2018-10-15T18:13:53.530Z,58.92
2018-10-15T18:16:21.246Z,58.83
2018-10-15T18:18:49.702Z,59.17
2018-10-15T18:21:17.539Z,59.04
2018-10-15T18:23:44.948Z,59.12
2018-10-15T18:26:12.413Z,59.84
2018-10-15T18:28:39.861Z,60.18
2018-10-15T18:31:07.283Z,60.01
2018-10-15T18:33:34.706Z,60.76
2018-10-15T18:36:02.134Z,61.03
2018-10-15T18:38:29.537Z,60.79
2018-10-15T18:40:57.006Z,61.23
2018-10-15T18:43:24.495Z,63.19
2018-10-15T18:45:51.979Z,62.23
2018-10-15T18:48:19.536Z,62.38
2018-10-15T18:50:46.939Z,62.38
2018-10-15T18:53:14.321Z,62.65
2018-10-15T18:55:41.682Z,64.05
2018-10-15T18:58:09.052Z,64.91
2018-10-15T19:00:36.460Z,65.23
2018-10-15T19:03:03.939Z,65.57
2018-10-15T19:05:31.437Z,66.62
2018-10-15T19:07:58.758Z,67.40
2018-10-15T19:10:26.329Z,68.03
2018-10-15T19:12:53.738Z,67.58
2018-10-15T19:15:21.119Z,67.77
2018-10-15T19:17:48.631Z,67.77
2018-10-15T19:20:16.250Z,68.54
2018-10-15T19:22:44.127Z,69.62
2018-10-15T19:25:11.553Z,69.77
2018-10-15T19:27:39.059Z,68.91
2018-10-15T19:30:08.089Z,68.75
2018-10-15T19:32:35.606Z,69.03
2018-10-15T19:35:11.518Z,71.97
2018-10-15T19:37:39.890Z,72.97
2018-10-15T19:40:07.437Z,74.07
2018-10-15T19:42:35.047Z,73.42
2018-10-15T19:45:02.904Z,72.85
2018-10-15T19:47:30.465Z,71.56
2018-10-15T19:49:57.854Z,71.30
2018-10-15T19:52:25.343Z,70.73
2018-10-15T19:54:52.676Z,71.92
2018-10-15T19:57:20.179Z,72.13
2018-10-15T19:59:47.671Z,72.56
2018-10-15T20:02:15.290Z,72.47
2018-10-15T20:04:43.632Z,73.66
2018-10-15T20:07:11.182Z,73.01
2018-10-15T20:09:38.617Z,72.93
2018-10-15T20:12:06.049Z,73.19
2018-10-15T20:14:33.641Z,74.81
2018-10-15T20:17:01.171Z,74.56
2018-10-15T20:19:28.725Z,75.93
2018-10-15T20:21:56.465Z,75.78
2018-10-15T20:24:24.113Z,75.73
2018-10-15T20:26:51.564Z,75.71
2018-10-15T20:29:19.119Z,75.11
2018-10-15T20:31:48.919Z,74.29
2018-10-15T20:34:17.459Z,74.78
2018-10-15T20:36:45.374Z,74.51
2018-10-15T20:39:15.955Z,75.76
2018-10-15T20:41:44.319Z,76.77
2018-10-15T20:44:12.103Z,76.52
2018-10-15T20:46:40.300Z,76.71
2018-10-15T20:49:09.280Z,77.68
2018-10-15T20:51:38.721Z,77.49
2018-10-15T20:54:07.270Z,77.60
2018-10-15T20:56:35.003Z,76.71
2018-10-15T20:59:02.771Z,75.89
2018-10-15T21:01:30.413Z,76.02
2018-10-15T21:03:58.382Z,77.61
2018-10-15T21:06:26.222Z,77.47
2018-10-15T21:08:54.044Z,77.94
2018-10-15T21:11:21.764Z,77.86
2018-10-15T21:13:49.585Z,77.08
2018-10-15T21:16:17.326Z,76.85
2018-10-15T21:18:45.146Z,76.74
2018-10-15T21:21:12.785Z,77.38
2018-10-15T21:23:40.547Z,77.66
2018-10-15T21:26:08.509Z,77.10
2018-10-15T21:28:36.345Z,77.85
2018-10-15T21:31:04.409Z,78.21
2018-10-15T21:33:32.111Z,78.01
2018-10-15T21:35:59.867Z,78.20
2018-10-15T21:38:27.706Z,78.78
2018-10-15T21:40:55.952Z,78.71
2018-10-15T21:43:23.652Z,78.35
2018-10-15T21:45:51.484Z,78.21
2018-10-15T21:48:19.151Z,77.77
2018-10-15T21:50:48.122Z,77.83
2018-10-15T21:53:16.241Z,77.77
2018-10-15T21:55:44.028Z,77.78
2018-10-15T21:58:11.972Z,77.47
2018-10-15T22:00:44.365Z,77.67
2018-10-15T22:03:12.344Z,78.32
2018-10-15T22:05:39.975Z,78.74
2018-10-15T22:08:07.981Z,78.01
2018-10-15T22:10:35.688Z,78.33
2018-10-15T22:13:03.414Z,78.67
2018-10-15T22:15:30.770Z,78.91
2018-10-15T22:17:58.085Z,78.23
2018-10-15T22:20:25.460Z,78.11
2018-10-15T22:22:52.920Z,79.60
2018-10-15T22:25:20.274Z,79.38
2018-10-15T22:27:47.674Z,79.88
2018-10-15T22:30:15.177Z,79.45
2018-10-15T22:32:42.502Z,79.01
2018-10-15T22:35:11.030Z,78.47
2018-10-15T22:37:38.583Z,79.95
2018-10-15T22:40:06.786Z,82.37
2018-10-15T22:42:34.149Z,81.46
2018-10-15T22:45:01.539Z,80.83
2018-10-15T22:47:28.987Z,80.94
2018-10-15T22:49:56.455Z,81.48
2018-10-15T22:52:23.795Z,81.14
2018-10-15T22:54:51.275Z,81.10
2018-10-15T22:57:18.611Z,81.03
2018-10-15T22:59:46.058Z,80.25
2018-10-15T23:02:13.430Z,80.59
2018-10-15T23:04:40.742Z,82.29
2018-10-15T23:07:08.908Z,81.99
2018-10-15T23:09:36.261Z,81.09
2018-10-15T23:12:03.620Z,80.88
2018-10-15T23:14:30.893Z,80.88
2018-10-15T23:16:58.255Z,81.92
2018-10-15T23:19:25.774Z,81.92
2018-10-15T23:21:53.606Z,83.62
2018-10-15T23:24:21.348Z,83.54
2018-10-15T23:26:48.718Z,83.61
2018-10-15T23:29:16.062Z,83.32
2018-10-15T23:31:43.424Z,82.41
2018-10-15T23:34:10.860Z,82.13
2018-10-15T23:36:38.301Z,82.57
2018-10-15T23:39:08.982Z,82.89
2018-10-15T23:41:36.322Z,84.88
2018-10-15T23:44:03.726Z,85.36
2018-10-15T23:46:31.110Z,84.92
2018-10-15T23:48:58.491Z,84.04
2018-10-15T23:51:25.871Z,82.93
2018-10-15T23:53:53.289Z,83.29
2018-10-15T23:56:20.678Z,83.06
2018-10-15T23:58:47.994Z,82.79
